Time;durP1;ratioP1;P1;durP2;ratioP2;P2;SDS_P1;SDS_P2;PMS_P1;PMS_P2;Temp;Humidity;BMP_temperature;BMP_pressure;BME280_temperature;BME280_humidity;BME280_pressure;Samples;Min_cycle;Max_cycle;Signal;HPM_P1;HPM_P2
2023/11/12 00:00:12;;;;;;;3.53;2.78;;;3.50;21.90;;;;;;6246617;23;20028;-85
2023/11/12 00:03:02;;;;;;;4.28;3.53;;;3.50;20.70;;;;;;6247329;23;20059;-84
2023/11/12 00:05:50;;;;;;;7.97;3.50;;;3.40;15.40;;;;;;6247278;23;20391;-83
2023/11/12 00:08:37;;;;;;;5.22;3.20;;;3.30;18.50;;;;;;6247115;23;20020;-85
2023/11/12 00:11:25;;;;;;;4.82;3.60;;;3.30;48.80;;;;;;6245760;23;20024;-83
2023/11/12 00:14:12;;;;;;;4.15;3.10;;;3.20;70.20;;;;;;6246288;23;20481;-84
2023/11/12 00:17:00;;;;;;;3.95;3.13;;;3.20;94.00;;;;;;6244385;23;20039;-83
2023/11/12 00:19:48;;;;;;;7.93;3.40;;;3.30;90.50;;;;;;6242782;23;20035;-84
2023/11/12 00:22:35;;;;;;;7.22;3.10;;;3.40;83.60;;;;;;6222169;23;20294;-84
2023/11/12 00:25:24;;;;;;;6.55;3.20;;;3.40;62.70;;;;;;6243620;23;20055;-83
2023/11/12 00:28:12;;;;;;;4.35;2.65;;;3.40;52.30;;;;;;6245419;23;20028;-84
2023/11/12 00:30:59;;;;;;;4.55;2.72;;;3.50;42.70;;;;;;6243079;23;20035;-83
2023/11/12 00:33:46;;;;;;;5.15;3.03;;;3.50;34.50;;;;;;6245449;23;20016;-81
2023/11/12 00:36:34;;;;;;;4.75;3.00;;;3.50;27.10;;;;;;6224278;23;20067;-82
2023/11/12 00:39:24;;;;;;;7.75;3.45;;;3.50;30.10;;;;;;6246486;23;20488;-84
2023/11/12 00:42:12;;;;;;;6.22;3.45;;;3.50;42.60;;;;;;6242590;23;20024;-83
2023/11/12 00:45:02;;;;;;;2.55;2.28;;;3.50;39.30;;;;;;6244293;23;20024;-84
2023/11/12 00:47:49;;;;;;;5.35;3.15;;;3.50;32.70;;;;;;6223961;23;20028;-84
2023/11/12 00:50:37;;;;;;;2.95;2.53;;;3.50;29.90;;;;;;6243314;23;20024;-82
2023/11/12 00:53:24;;;;;;;3.47;2.55;;;3.50;26.90;;;;;;6220959;23;20052;-84
2023/11/12 00:56:12;;;;;;;7.05;2.50;;;3.60;28.00;;;;;;6244199;23;20039;-84
2023/11/12 00:59:04;;;;;;;3.90;2.85;;;3.50;10.80;;;;;;6245064;23;20308;-83
2023/11/12 01:01:52;;;;;;;;;;;3.50;6.20;;;;;;6245033;23;20101;-84
2023/11/12 01:04:41;;;;;;;4.82;2.80;;;3.50;24.00;;;;;;6224038;23;19919;-83
2023/11/12 01:07:31;;;;;;;4.00;2.67;;;3.40;45.70;;;;;;6243110;23;20020;-83
2023/11/12 01:10:19;;;;;;;6.20;2.60;;;3.40;54.40;;;;;;6223679;23;20020;-83
2023/11/12 01:13:06;;;;;;;2.72;2.47;;;3.40;60.50;;;;;;6243385;23;20031;-84
2023/11/12 01:15:54;;;;;;;4.45;2.90;;;3.40;58.60;;;;;;6246506;23;20028;-84
2023/11/12 01:18:41;;;;;;;5.43;2.55;;;3.50;49.50;;;;;;6221945;23;20032;-83
2023/11/12 01:21:29;;;;;;;3.63;2.83;;;3.50;40.50;;;;;;6245401;23;20112;-82
2023/11/12 01:24:16;;;;;;;3.00;2.47;;;3.50;35.30;;;;;;6244704;23;20024;-84
2023/11/12 01:27:06;;;;;;;3.75;2.40;;;3.40;32.70;;;;;;6245044;23;20031;-84
2023/11/12 01:29:56;;;;;;;3.80;2.40;;;3.40;48.00;;;;;;6244140;23;20328;-84
2023/11/12 01:32:44;;;;;;;3.65;2.35;;;3.30;59.10;;;;;;6243093;23;20103;-83
2023/11/12 01:35:32;;;;;;;4.88;2.80;;;3.30;63.70;;;;;;6242595;23;20024;-84
2023/11/12 01:38:19;;;;;;;3.35;2.55;;;3.30;54.40;;;;;;6243739;23;20086;-85
2023/11/12 01:41:09;;;;;;;3.85;2.65;;;3.30;60.70;;;;;;6246505;22;20046;-84
2023/11/12 01:43:59;;;;;;;4.88;2.83;;;3.20;64.70;;;;;;6242426;23;20024;-83
2023/11/12 01:46:48;;;;;;;6.10;2.95;;;3.20;83.20;;;;;;6243143;23;20024;-84
2023/11/12 01:49:39;;;;;;;4.65;2.42;;;3.20;91.20;;;;;;6242787;23;20039;-84
2023/11/12 01:52:26;;;;;;;4.18;2.70;;;3.30;92.80;;;;;;6242219;23;20024;-83
2023/11/12 01:55:13;;;;;;;4.22;2.72;;;3.30;75.00;;;;;;6220886;23;20162;-83
2023/11/12 01:58:01;;;;;;;4.07;2.50;;;3.30;65.10;;;;;;6243745;23;20032;-84
2023/11/12 02:00:49;;;;;;;3.47;2.40;;;3.40;61.80;;;;;;6243493;23;20036;-80
2023/11/12 02:03:40;;;;;;;7.15;2.25;;;3.40;63.80;;;;;;6244978;23;20028;-81
2023/11/12 02:06:27;;;;;;;6.50;2.92;;;3.50;53.90;;;;;;6223229;23;20024;-83
2023/11/12 02:09:16;;;;;;;4.20;2.30;;;3.50;43.00;;;;;;6244306;23;20406;-84
2023/11/12 02:12:03;;;;;;;4.78;2.22;;;3.50;37.60;;;;;;6242896;23;20039;-84
2023/11/12 02:14:51;;;;;;;3.85;1.70;;;3.50;27.50;;;;;;6244377;23;20035;-83
2023/11/12 02:17:39;;;;;;;6.47;3.20;;;3.60;21.10;;;;;;6244088;23;20031;-82
2023/11/12 02:20:27;;;;;;;8.73;1.98;;;3.50;15.10;;;;;;6242949;23;20028;-83
2023/11/12 02:23:15;;;;;;;1.75;1.65;;;3.60;10.40;;;;;;6223069;23;20035;-83
2023/11/12 02:26:02;;;;;;;2.97;2.03;;;3.50;4.70;;;;;;6244164;23;20107;-82
2023/11/12 02:28:52;;;;;;;3.20;2.47;;;3.30;1.00;;;;;;6242884;23;20030;-80
2023/11/12 02:31:39;;;;;;;2.83;2.25;;;3.10;16.20;;;;;;6243679;23;20020;-84
2023/11/12 02:34:29;;;;;;;3.47;2.10;;;2.90;69.70;;;;;;6220782;23;20020;-83
2023/11/12 02:37:19;;;;;;;3.63;1.83;;;2.80;91.10;;;;;;6242752;23;20050;-83
2023/11/12 02:40:07;;;;;;;3.72;2.33;;;2.70;99.90;;;;;;6221020;23;20547;-83
2023/11/12 02:42:56;;;;;;;4.45;2.95;;;2.70;99.90;;;;;;6243989;23;20410;-79
2023/11/12 02:45:44;;;;;;;2.45;2.17;;;2.40;99.90;;;;;;6221755;23;20056;-82
2023/11/12 02:48:57;;;;;;;6.32;2.90;;;2.30;99.90;;;;;;6224523;23;20051;-82
2023/11/12 02:51:45;;;;;;;3.55;2.80;;;2.10;99.90;;;;;;6244570;23;20276;-81
2023/11/12 02:54:35;;;;;;;5.28;2.58;;;2.00;99.90;;;;;;6242658;23;20020;-83
2023/11/12 02:57:22;;;;;;;7.18;2.67;;;2.00;99.90;;;;;;6242592;23;20444;-81
2023/11/12 03:00:10;;;;;;;4.85;2.47;;;1.90;99.90;;;;;;6244779;23;20039;-86
2023/11/12 03:03:00;;;;;;;3.28;2.67;;;2.00;99.90;;;;;;6244766;23;20027;-84
2023/11/12 03:05:48;;;;;;;4.32;2.88;;;2.00;99.90;;;;;;6244718;23;20035;-85
2023/11/12 03:08:35;;;;;;;3.20;2.75;;;1.90;99.90;;;;;;6241787;23;20039;-84
2023/11/12 03:11:25;;;;;;;4.45;3.00;;;1.70;99.90;;;;;;6220296;23;20028;-85
2023/11/12 03:14:17;;;;;;;4.85;3.00;;;1.50;99.90;;;;;;6221470;23;20035;-83
2023/11/12 03:17:04;;;;;;;8.10;2.78;;;1.30;99.90;;;;;;6223062;23;20138;-83
2023/11/12 03:19:52;;;;;;;4.38;3.00;;;1.20;99.90;;;;;;6242387;23;20051;-84
2023/11/12 03:22:39;;;;;;;7.78;3.38;;;1.10;99.90;;;;;;6242248;23;20039;-85
2023/11/12 03:25:27;;;;;;;8.45;3.30;;;1.00;99.90;;;;;;6221203;23;20024;-84
2023/11/12 03:28:14;;;;;;;4.05;2.97;;;0.80;99.90;;;;;;6243455;23;20028;-84
2023/11/12 03:31:01;;;;;;;7.13;3.10;;;0.80;99.90;;;;;;6244720;23;20091;-83
2023/11/12 03:33:49;;;;;;;5.57;2.85;;;0.80;99.90;;;;;;6224858;23;20024;-82
2023/11/12 03:36:39;;;;;;;4.93;3.10;;;0.80;99.90;;;;;;6244838;23;20028;-81
2023/11/12 03:39:27;;;;;;;3.25;2.90;;;0.70;99.90;;;;;;6246658;23;20027;-82
2023/11/12 03:42:20;;;;;;;4.88;2.88;;;0.70;99.90;;;;;;6245333;23;20330;-82
2023/11/12 03:45:08;;;;;;;3.35;3.00;;;0.80;99.90;;;;;;6223318;23;20343;-82
2023/11/12 03:47:58;;;;;;;5.70;3.03;;;0.80;99.90;;;;;;6244005;23;20028;-82
2023/11/12 03:50:45;;;;;;;7.80;4.22;;;0.90;99.90;;;;;;6242936;23;20302;-83
2023/11/12 03:53:32;;;;;;;6.55;4.22;;;1.00;99.90;;;;;;6243719;23;20027;-82
2023/11/12 03:56:20;;;;;;;6.65;4.20;;;1.30;99.90;;;;;;6222842;23;20100;-83
2023/11/12 03:59:11;;;;;;;5.03;4.10;;;1.40;99.90;;;;;;6244399;23;20028;-80
2023/11/12 04:01:58;;;;;;;10.23;4.80;;;1.40;99.90;;;;;;6246086;23;20024;-83
2023/11/12 04:04:45;;;;;;;14.13;5.60;;;1.50;99.90;;;;;;6245466;23;20051;-83
2023/11/12 04:07:33;;;;;;;14.52;5.80;;;1.50;99.90;;;;;;6223855;23;20035;-83
2023/11/12 04:10:22;;;;;;;10.98;5.75;;;1.60;99.90;;;;;;6224842;23;20024;-82
2023/11/12 04:13:10;;;;;;;11.65;4.15;;;1.60;99.90;;;;;;6221060;23;20020;-82
2023/11/12 04:16:00;;;;;;;10.95;5.18;;;1.70;99.90;;;;;;6222951;23;20031;-81
2023/11/12 04:18:47;;;;;;;12.35;4.22;;;1.70;99.90;;;;;;6247208;23;20024;-80
2023/11/12 04:21:35;;;;;;;8.20;4.60;;;1.70;99.90;;;;;;6245720;23;20330;-83
2023/11/12 04:24:26;;;;;;;6.50;4.80;;;1.70;99.90;;;;;;6243437;23;20445;-83
2023/11/12 04:27:14;;;;;;;7.40;4.53;;;1.70;99.90;;;;;;6245238;23;20024;-83
2023/11/12 04:30:01;;;;;;;8.93;4.60;;;1.60;99.90;;;;;;6242288;23;20091;-82
2023/11/12 04:32:48;;;;;;;7.20;4.13;;;1.60;99.90;;;;;;6224257;23;20020;-83
2023/11/12 04:35:37;;;;;;;8.95;4.65;;;1.50;99.90;;;;;;6243404;23;20020;-81
2023/11/12 04:38:27;;;;;;;6.50;4.60;;;1.40;99.90;;;;;;6245096;23;20434;-83
2023/11/12 04:41:17;;;;;;;10.02;4.90;;;1.20;99.90;;;;;;6243770;23;20024;-84
2023/11/12 04:44:05;;;;;;;14.70;4.50;;;1.10;99.90;;;;;;6244535;23;20426;-83
2023/11/12 04:46:55;;;;;;;9.15;4.72;;;1.00;99.90;;;;;;6245650;23;20028;-81
2023/11/12 04:49:42;;;;;;;9.98;4.65;;;0.90;99.90;;;;;;6243712;23;20340;-82
2023/11/12 04:52:29;;;;;;;8.35;4.85;;;0.90;99.90;;;;;;6243136;23;20082;-83
2023/11/12 04:55:19;;;;;;;6.78;3.88;;;0.80;99.90;;;;;;6244875;23;20020;-80
2023/11/12 04:58:07;;;;;;;9.65;4.40;;;0.80;99.90;;;;;;6245026;23;20203;-81
2023/11/12 05:00:54;;;;;;;11.27;5.18;;;0.80;99.90;;;;;;6246559;22;20028;-83
2023/11/12 05:03:41;;;;;;;8.07;4.25;;;0.80;99.90;;;;;;6242886;23;20510;-82
2023/11/12 05:06:29;;;;;;;6.53;4.47;;;0.80;99.90;;;;;;6245387;23;20269;-81
2023/11/12 05:09:17;;;;;;;7.43;4.60;;;0.70;99.90;;;;;;6247620;23;20031;-84
2023/11/12 05:12:09;;;;;;;9.73;4.72;;;0.60;99.90;;;;;;6243878;23;20043;-83
2023/11/12 05:15:01;;;;;;;14.52;4.93;;;0.50;99.90;;;;;;6243981;23;20106;-85
2023/11/12 05:17:49;;;;;;;5.35;3.95;;;0.40;99.90;;;;;;6245331;23;20395;-83
2023/11/12 05:20:39;;;;;;;9.02;4.70;;;0.30;99.90;;;;;;6243541;23;20081;-84
2023/11/12 05:23:29;;;;;;;7.38;4.75;;;0.30;99.90;;;;;;6242474;23;20028;-83
2023/11/12 05:26:16;;;;;;;9.98;4.57;;;0.20;99.90;;;;;;6243074;23;20038;-84
2023/11/12 05:29:03;;;;;;;10.77;5.45;;;0.40;99.90;;;;;;6243468;23;20034;-83
2023/11/12 05:31:51;;;;;;;7.88;5.57;;;0.60;99.90;;;;;;6242914;23;20403;-84
2023/11/12 05:34:39;;;;;;;13.35;6.70;;;0.70;99.90;;;;;;6243639;23;20020;-84
2023/11/12 05:37:26;;;;;;;12.55;5.82;;;0.70;99.90;;;;;;6243162;23;20031;-83
2023/11/12 05:40:16;;;;;;;9.30;5.53;;;0.70;99.90;;;;;;6242412;23;20024;-84
2023/11/12 05:43:03;;;;;;;14.63;5.50;;;0.80;99.90;;;;;;6244758;23;20035;-83
2023/11/12 05:45:50;;;;;;;11.07;5.25;;;0.90;99.90;;;;;;6249405;23;20016;-79
2023/11/12 05:48:38;;;;;;;10.40;5.65;;;1.00;99.90;;;;;;6252542;23;20024;-83
2023/11/12 05:51:28;;;;;;;11.23;5.35;;;1.10;99.90;;;;;;6242501;23;20044;-83
2023/11/12 05:54:15;;;;;;;12.65;5.75;;;1.00;99.90;;;;;;6242192;23;20028;-81
2023/11/12 05:57:04;;;;;;;7.85;5.20;;;1.00;99.90;;;;;;6244617;23;20027;-83
2023/11/12 05:59:51;;;;;;;8.00;4.90;;;1.00;99.90;;;;;;6244020;23;20039;-84
2023/11/12 06:02:39;;;;;;;10.55;6.00;;;1.10;99.90;;;;;;6242804;23;20020;-83
2023/11/12 06:05:26;;;;;;;11.70;6.38;;;1.10;99.90;;;;;;6243150;23;20138;-84
2023/11/12 06:08:13;;;;;;;9.43;6.32;;;1.10;99.90;;;;;;6238854;23;20024;-83
2023/11/12 06:11:04;;;;;;;16.30;7.97;;;1.00;99.90;;;;;;6244360;23;20035;-84
2023/11/12 06:13:51;;;;;;;19.17;9.65;;;1.10;99.90;;;;;;6243707;23;20304;-84
2023/11/12 06:16:38;;;;;;;19.88;10.85;;;1.10;99.90;;;;;;6241654;23;20379;-82
2023/11/12 06:19:26;;;;;;;19.15;11.63;;;1.20;99.90;;;;;;6242555;23;20024;-81
2023/11/12 06:22:14;;;;;;;22.42;12.30;;;1.20;99.90;;;;;;6240645;23;20028;-80
2023/11/12 06:25:04;;;;;;;21.52;12.10;;;1.30;99.90;;;;;;6244826;23;20131;-84
2023/11/12 06:27:52;;;;;;;23.35;12.63;;;1.30;99.90;;;;;;6244049;23;20111;-83
2023/11/12 06:30:39;;;;;;;25.35;12.77;;;1.30;99.90;;;;;;6243966;23;20020;-83
2023/11/12 06:33:27;;;;;;;24.02;13.05;;;1.30;99.90;;;;;;6226451;23;20302;-83
2023/11/12 06:36:16;;;;;;;20.75;12.98;;;1.20;99.90;;;;;;6242481;23;20032;-81
2023/11/12 06:39:06;;;;;;;25.45;13.15;;;1.20;99.90;;;;;;6257809;22;20689;-79
2023/11/12 06:41:53;;;;;;;20.55;13.00;;;1.20;99.90;;;;;;6250159;23;20127;-83
2023/11/12 06:44:43;;;;;;;20.25;12.20;;;1.30;99.90;;;;;;6251183;23;20094;-83
2023/11/12 06:47:30;;;;;;;23.30;13.57;;;1.30;99.90;;;;;;6252139;22;20126;-83
2023/11/12 06:50:18;;;;;;;23.10;13.80;;;1.30;99.90;;;;;;6247208;23;20145;-83
2023/11/12 06:53:05;;;;;;;20.98;13.65;;;1.20;99.90;;;;;;6249609;23;20020;-81
2023/11/12 06:55:53;;;;;;;23.98;13.93;;;1.20;99.90;;;;;;6249710;23;20111;-84
2023/11/12 06:58:40;;;;;;;21.30;13.05;;;1.30;99.90;;;;;;6249858;23;20121;-83
2023/11/12 07:01:28;;;;;;;23.05;13.23;;;1.40;99.90;;;;;;6250231;23;20099;-83
2023/11/12 07:04:16;;;;;;;18.52;11.38;;;1.40;99.90;;;;;;6251189;23;20035;-84
2023/11/12 07:07:05;;;;;;;18.67;11.98;;;1.50;99.90;;;;;;6249499;23;20530;-81
2023/11/12 07:10:08;;;;;;;22.13;11.35;;;1.50;99.90;;;;;;6245383;23;20030;-81
2023/11/12 07:12:59;;;;;;;15.43;10.93;;;1.60;99.90;;;;;;6247514;23;20028;-85
2023/11/12 07:15:46;;;;;;;17.08;11.40;;;1.60;99.90;;;;;;6244564;23;20113;-82
2023/11/12 07:18:33;;;;;;;19.13;11.95;;;1.60;99.90;;;;;;6243970;23;20032;-82
2023/11/12 07:21:38;;;;;;;18.42;11.88;;;1.70;99.90;;;;;;6244576;23;20038;-81
2023/11/12 07:24:25;;;;;;;22.40;12.05;;;1.80;99.90;;;;;;6246706;23;20083;-79
2023/11/12 07:27:12;;;;;;;20.60;12.52;;;1.80;99.90;;;;;;6245824;23;20077;-83
2023/11/12 07:30:02;;;;;;;26.50;12.50;;;1.80;99.90;;;;;;6246810;22;20024;-84
2023/11/12 07:32:49;;;;;;;20.38;12.77;;;1.80;99.90;;;;;;6244290;23;20020;-84
2023/11/12 07:35:37;;;;;;;20.27;11.57;;;1.80;99.90;;;;;;6220793;23;20024;-83
2023/11/12 07:38:24;;;;;;;21.73;12.75;;;1.80;99.90;;;;;;6244239;23;20023;-81
2023/11/12 07:41:17;;;;;;;18.60;11.18;;;1.80;99.90;;;;;;6223540;23;20020;-80
2023/11/12 07:44:05;;;;;;;12.07;8.80;;;1.80;99.90;;;;;;6246077;23;20039;-81
2023/11/12 07:46:55;;;;;;;22.83;12.50;;;1.80;99.90;;;;;;6249884;23;20439;-81
2023/11/12 07:49:42;;;;;;;20.58;12.02;;;1.80;99.90;;;;;;6265008;23;20043;-81
2023/11/12 07:52:35;;;;;;;17.45;10.45;;;1.90;99.90;;;;;;6254996;23;20035;-83
2023/11/12 07:55:25;;;;;;;18.65;11.38;;;1.90;99.90;;;;;;6244026;23;20459;-82
2023/11/12 07:58:12;;;;;;;17.00;10.63;;;2.00;99.90;;;;;;6244484;23;20035;-82
2023/11/12 08:00:59;;;;;;;15.07;10.15;;;2.10;99.90;;;;;;6224943;23;20461;-82
2023/11/12 08:03:54;;;;;;;16.42;10.00;;;2.20;99.90;;;;;;6246382;23;20020;-81
2023/11/12 08:06:46;;;;;;;17.15;10.40;;;2.30;99.90;;;;;;6228663;22;20020;-80
2023/11/12 08:09:36;;;;;;;15.02;9.98;;;2.40;99.90;;;;;;6253432;22;20095;-80
2023/11/12 08:12:28;;;;;;;21.35;10.57;;;2.50;99.90;;;;;;6242474;23;20027;-83
2023/11/12 08:15:18;;;;;;;15.00;10.38;;;2.60;99.90;;;;;;6243076;23;20414;-82
2023/11/12 08:18:05;;;;;;;19.98;10.52;;;2.70;99.90;;;;;;6242399;23;20423;-81
2023/11/12 08:20:54;;;;;;;12.40;9.73;;;2.60;99.90;;;;;;6223073;23;20587;-80
2023/11/12 08:23:44;;;;;;;19.48;12.43;;;2.60;99.90;;;;;;6241699;23;20066;-82
2023/11/12 08:26:35;;;;;;;17.65;12.98;;;2.50;99.90;;;;;;6243506;23;20099;-81
2023/11/12 08:29:25;;;;;;;18.67;10.13;;;2.50;99.90;;;;;;6242266;23;20031;-80
2023/11/12 08:32:15;;;;;;;16.00;9.88;;;2.50;99.90;;;;;;6244379;23;20028;-81
2023/11/12 08:35:02;;;;;;;15.32;10.43;;;2.60;99.90;;;;;;6244115;23;20026;-82
2023/11/12 08:37:52;;;;;;;15.45;10.45;;;2.60;99.90;;;;;;6241889;23;20115;-82
2023/11/12 08:40:42;;;;;;;17.15;12.02;;;2.70;99.90;;;;;;6244005;23;20158;-83
2023/11/12 08:43:32;;;;;;;22.70;13.02;;;2.90;99.90;;;;;;6243030;23;20407;-82
2023/11/12 08:46:23;;;;;;;19.65;12.48;;;3.00;99.90;;;;;;6246029;23;20024;-82
2023/11/12 08:49:10;;;;;;;22.15;9.50;;;3.00;99.90;;;;;;6225159;23;20308;-82
2023/11/12 08:52:00;;;;;;;15.95;8.98;;;3.20;99.90;;;;;;6244345;23;20020;-82
2023/11/12 08:54:51;;;;;;;15.93;9.40;;;3.50;99.90;;;;;;6245438;23;20091;-82
2023/11/12 08:57:41;;;;;;;14.18;9.32;;;3.60;99.90;;;;;;6255729;23;20024;-81
2023/11/12 09:00:28;;;;;;;11.77;8.77;;;3.70;99.90;;;;;;6228295;23;20046;-82
2023/11/12 09:03:18;;;;;;;8.93;6.72;;;3.70;99.90;;;;;;6227150;23;20024;-81
2023/11/12 09:06:06;;;;;;;18.15;6.40;;;3.80;99.90;;;;;;6223396;23;20024;-81
2023/11/12 09:08:55;;;;;;;12.18;6.38;;;3.90;99.90;;;;;;6243075;23;20024;-81
2023/11/12 09:11:44;;;;;;;10.05;6.70;;;4.00;99.90;;;;;;6222852;23;20024;-82
2023/11/12 09:14:32;;;;;;;12.85;6.35;;;4.20;99.90;;;;;;6242785;23;20103;-81
2023/11/12 09:17:22;;;;;;;11.18;7.10;;;4.40;99.90;;;;;;6244333;23;20038;-82
2023/11/12 09:20:14;;;;;;;8.48;4.93;;;4.40;99.90;;;;;;6241065;23;20028;-81
2023/11/12 09:23:02;;;;;;;8.00;5.03;;;4.60;99.90;;;;;;6243964;23;20044;-82
2023/11/12 09:25:52;;;;;;;5.95;4.65;;;4.70;99.90;;;;;;6242049;23;20103;-82
2023/11/12 09:28:40;;;;;;;5.47;4.20;;;4.90;99.90;;;;;;6245606;22;20126;-81
2023/11/12 09:31:33;;;;;;;10.02;4.30;;;5.00;97.70;;;;;;6241997;23;20411;-82
2023/11/12 09:34:20;;;;;;;6.10;4.57;;;4.80;1.00;;;;;;6243242;23;20027;-82
2023/11/12 09:37:08;;;;;;;6.45;4.70;;;4.80;99.90;;;;;;6223717;23;20661;-81
2023/11/12 09:39:56;;;;;;;6.15;5.05;;;4.80;99.90;;;;;;6224681;23;20028;-80
2023/11/12 09:42:53;;;;;;;7.03;5.70;;;4.60;43.00;;;;;;6242845;23;20105;-81
2023/11/12 09:45:45;;;;;;;9.25;4.88;;;4.50;16.20;;;;;;6242042;23;20047;-80
2023/11/12 09:48:39;;;;;;;7.55;5.30;;;4.60;1.00;;;;;;6243723;23;20099;-80
2023/11/12 09:51:28;;;;;;;5.82;4.90;;;4.60;1.00;;;;;;6223259;23;20025;-79
2023/11/12 09:54:17;;;;;;;7.20;4.50;;;4.80;99.90;;;;;;6223508;23;20028;-82
2023/11/12 09:57:07;;;;;;;4.15;3.10;;;4.90;99.90;;;;;;6242372;23;20035;-83
2023/11/12 09:59:55;;;;;;;4.43;2.92;;;5.00;99.90;;;;;;6243809;23;20102;-82
2023/11/12 10:02:49;;;;;;;6.15;3.67;;;5.10;99.90;;;;;;6238549;22;20035;-82
2023/11/12 10:05:38;;;;;;;8.75;4.60;;;5.30;31.00;;;;;;6220212;23;20020;-81
2023/11/12 10:08:27;;;;;;;8.20;3.90;;;5.30;99.90;;;;;;6241943;23;20035;-81
2023/11/12 10:11:19;;;;;;;6.50;4.18;;;5.30;99.90;;;;;;6242933;23;20023;-81
2023/11/12 10:14:16;;;;;;;7.85;4.70;;;5.20;1.00;;;;;;6243469;23;20024;-80
2023/11/12 10:17:10;;;;;;;7.88;4.78;;;5.10;1.00;;;;;;6244289;23;20046;-80
2023/11/12 10:19:58;;;;;;;7.57;4.80;;;5.00;1.00;;;;;;6224027;23;20080;-80
2023/11/12 10:22:46;;;;;;;9.55;6.55;;;5.00;34.70;;;;;;6222715;23;20411;-81
2023/11/12 10:25:42;;;;;;;9.93;5.90;;;5.00;99.90;;;;;;6222043;23;20103;-82
2023/11/12 10:28:35;;;;;;;11.32;6.10;;;5.00;73.00;;;;;;6245123;23;20024;-80
2023/11/12 10:31:40;;;;;;;9.80;5.57;;;5.00;1.00;;;;;;6244593;23;20445;-80
2023/11/12 10:34:28;;;;;;;9.13;5.35;;;4.90;1.00;;;;;;6222856;23;20024;-80
2023/11/12 10:37:23;;;;;;;10.55;4.65;;;5.00;1.00;;;;;;6256101;23;20023;-80
2023/11/12 10:40:12;;;;;;;;;;;5.00;1.00;;;;;;6237774;23;20031;-80
2023/11/12 10:43:09;;;;;;;7.95;4.90;;;5.00;99.90;;;;;;6248830;22;19922;-80
2023/11/12 10:46:06;;;;;;;11.18;5.50;;;5.00;99.90;;;;;;6242929;23;20103;-79
2023/11/12 10:48:56;;;;;;;5.47;4.00;;;5.00;99.90;;;;;;6243033;23;20104;-80
2023/11/12 10:51:46;;;;;;;5.82;3.80;;;5.00;99.90;;;;;;6241667;23;20113;-81
2023/11/12 10:54:37;;;;;;;8.98;3.92;;;5.10;1.00;;;;;;6222675;23;20613;-79
2023/11/12 10:57:29;;;;;;;7.63;4.22;;;5.10;1.00;;;;;;6222308;23;20040;-79
2023/11/12 11:00:24;;;;;;;7.72;4.15;;;5.10;1.00;;;;;;6223966;23;20024;-79
2023/11/12 11:03:14;;;;;;;7.90;4.47;;;5.20;99.90;;;;;;6243919;23;20028;-82
2023/11/12 11:06:03;;;;;;;10.02;5.30;;;5.30;99.90;;;;;;6222724;23;20066;-81
2023/11/12 11:08:56;;;;;;;8.15;5.40;;;5.40;99.90;;;;;;6221048;23;20051;-81
2023/11/12 11:11:49;;;;;;;7.72;4.95;;;5.40;99.90;;;;;;6243813;23;20031;-79
2023/11/12 11:14:37;;;;;;;9.43;5.47;;;5.40;99.90;;;;;;6242137;23;20460;-80
2023/11/12 11:17:37;;;;;;;7.57;5.47;;;5.30;99.90;;;;;;6241727;23;20056;-81
2023/11/12 11:20:25;;;;;;;7.63;4.78;;;5.40;99.90;;;;;;6243083;23;20054;-80
2023/11/12 11:23:40;;;;;;;7.47;5.43;;;5.50;99.90;;;;;;6241854;23;20028;-81
2023/11/12 11:26:30;;;;;;;9.02;6.00;;;5.70;99.90;;;;;;6221091;23;20039;-80
2023/11/12 11:29:18;;;;;;;6.53;5.13;;;5.90;1.00;;;;;;6240866;23;20036;-80
2023/11/12 11:32:08;;;;;;;7.13;4.63;;;6.20;1.00;;;;;;6238866;23;20154;-81
2023/11/12 11:34:56;;;;;;;7.18;4.78;;;6.40;99.90;;;;;;6220238;23;20024;-80
2023/11/12 11:38:11;;;;;;;8.55;5.25;;;6.60;71.10;;;;;;6241976;23;20075;-81
2023/11/12 11:41:23;;;;;;;5.32;4.03;;;6.80;47.70;;;;;;6228687;23;20012;-82
2023/11/12 11:44:37;;;;;;;6.82;4.63;;;6.80;99.90;;;;;;6243141;23;20035;-79
2023/11/12 11:47:28;;;;;;;5.45;4.30;;;6.80;99.90;;;;;;6221151;23;20024;-81
2023/11/12 11:50:28;;;;;;;10.07;4.57;;;6.90;99.90;;;;;;6245277;23;20075;-82
2023/11/12 11:53:34;;;;;;;5.95;3.92;;;6.80;48.90;;;;;;6246072;23;20086;-80
2023/11/12 11:56:26;;;;;;;6.38;4.50;;;6.50;57.70;;;;;;6243838;23;20303;-80
2023/11/12 11:59:14;;;;;;;6.70;4.47;;;6.50;99.90;;;;;;6246345;23;20028;-80
2023/11/12 12:02:03;;;;;;;6.25;4.63;;;6.50;99.90;;;;;;6246107;23;20602;-81
2023/11/12 12:04:57;;;;;;;5.95;4.55;;;6.50;96.20;;;;;;6245373;23;20032;-80
2023/11/12 12:07:46;;;;;;;7.50;4.68;;;6.40;99.90;;;;;;6243245;23;20126;-82
2023/11/12 12:10:39;;;;;;;5.63;4.03;;;6.30;71.20;;;;;;6223975;23;20153;-80
2023/11/12 12:13:28;;;;;;;7.00;5.03;;;6.30;78.20;;;;;;6243849;23;20028;-80
2023/11/12 12:16:25;;;;;;;5.80;4.13;;;6.20;57.80;;;;;;6222893;23;20016;-78
2023/11/12 12:19:21;;;;;;;6.18;4.57;;;6.30;78.20;;;;;;6222377;23;20028;-80
2023/11/12 12:22:12;;;;;;;7.70;4.45;;;6.40;66.90;;;;;;6222747;23;20024;-81
2023/11/12 12:25:04;;;;;;;7.68;4.57;;;6.40;34.70;;;;;;6223135;23;20023;-79
2023/11/12 12:27:54;;;;;;;6.53;4.57;;;6.60;73.40;;;;;;6223168;23;20035;-80
2023/11/12 12:30:55;;;;;;;7.45;4.75;;;6.60;55.00;;;;;;6245610;23;20016;-80
2023/11/12 12:34:06;;;;;;;8.23;4.90;;;6.50;10.20;;;;;;6222687;23;20024;-80
2023/11/12 12:37:06;;;;;;;7.05;4.47;;;6.50;8.30;;;;;;6246745;23;20024;-80
2023/11/12 12:40:10;;;;;;;6.28;4.32;;;6.40;25.50;;;;;;6245642;23;20024;-79
2023/11/12 12:42:58;;;;;;;5.35;3.80;;;6.40;61.30;;;;;;6222707;23;20028;-79
2023/11/12 12:45:56;;;;;;;4.40;3.38;;;6.30;50.20;;;;;;6247271;23;20051;-81
2023/11/12 12:48:55;;;;;;;4.82;3.58;;;6.10;52.10;;;;;;6244068;23;20028;-81
2023/11/12 12:51:51;;;;;;;9.00;4.15;;;6.00;90.90;;;;;;6254782;23;20020;-82
2023/11/12 12:54:44;;;;;;;10.10;4.68;;;6.00;99.90;;;;;;6224560;23;20059;-83
2023/11/12 12:57:33;;;;;;;7.22;4.20;;;6.10;99.90;;;;;;6245175;23;20024;-81
2023/11/12 13:00:24;;;;;;;6.45;4.28;;;6.00;99.90;;;;;;6248764;23;20024;-81
2023/11/12 13:03:28;;;;;;;5.85;3.42;;;6.00;99.90;;;;;;6248501;23;20031;-80
2023/11/12 13:06:16;;;;;;;6.50;4.40;;;5.90;99.90;;;;;;6226513;23;20035;-80
2023/11/12 13:09:16;;;;;;;10.25;5.40;;;5.90;99.90;;;;;;6243819;23;20111;-83
2023/11/12 13:12:04;;;;;;;5.15;3.35;;;5.80;99.90;;;;;;6244915;23;20458;-81
2023/11/12 13:14:54;;;;;;;5.30;3.45;;;5.80;99.90;;;;;;6226676;23;20380;-81
2023/11/12 13:17:45;;;;;;;4.20;3.22;;;5.70;99.90;;;;;;6228829;23;20039;-80
2023/11/12 13:20:35;;;;;;;3.80;2.92;;;5.70;99.90;;;;;;6260297;23;20111;-82
2023/11/12 13:23:23;;;;;;;8.07;2.85;;;5.70;99.90;;;;;;6236770;23;20059;-80
2023/11/12 13:26:11;;;;;;;4.20;2.50;;;5.70;99.90;;;;;;6248408;23;20465;-81
2023/11/12 13:29:01;;;;;;;3.70;2.53;;;5.60;99.90;;;;;;6224237;23;20047;-81
2023/11/12 13:31:49;;;;;;;4.28;2.72;;;5.50;1.00;;;;;;6244224;23;20020;-82
2023/11/12 13:34:37;;;;;;;5.88;4.00;;;5.40;21.70;;;;;;6249817;23;20034;-79
2023/11/12 13:37:27;;;;;;;6.72;3.17;;;5.40;99.90;;;;;;6245860;23;20107;-81
2023/11/12 13:40:15;;;;;;;4.35;2.63;;;5.40;1.00;;;;;;6224353;23;20058;-82
2023/11/12 13:43:03;;;;;;;10.50;5.55;;;5.40;56.70;;;;;;6246974;23;20023;-81
2023/11/12 13:45:54;;;;;;;5.18;3.40;;;5.30;99.90;;;;;;6248363;23;20027;-80
2023/11/12 13:48:44;;;;;;;5.45;3.42;;;5.30;99.90;;;;;;6226887;23;20066;-82
2023/11/12 13:51:35;;;;;;;14.70;9.15;;;5.20;99.90;;;;;;6245876;23;20027;-82
2023/11/12 13:54:23;;;;;;;12.18;3.75;;;5.20;99.90;;;;;;6244185;23;20020;-80
2023/11/12 13:57:16;;;;;;;5.43;2.90;;;5.10;1.00;;;;;;6242921;23;20020;-81
2023/11/12 14:00:10;;;;;;;3.30;3.00;;;5.10;45.20;;;;;;6244977;23;20047;-82
2023/11/12 14:03:01;;;;;;;6.32;4.28;;;5.00;99.90;;;;;;6244679;23;20387;-82
2023/11/12 14:05:52;;;;;;;4.10;2.72;;;5.00;1.00;;;;;;6242847;23;20089;-82
2023/11/12 14:08:44;;;;;;;5.93;4.13;;;5.00;1.00;;;;;;6244199;23;20034;-79
2023/11/12 14:11:32;;;;;;;;;;;5.00;1.00;;;;;;6219988;23;20035;-81
2023/11/12 14:14:21;;;;;;;4.22;3.17;;;4.90;1.00;;;;;;6244486;23;19942;-82
2023/11/12 14:17:14;;;;;;;6.50;3.80;;;4.80;1.00;;;;;;6220227;23;20047;-80
2023/11/12 14:20:05;;;;;;;8.45;3.78;;;4.80;6.80;;;;;;6241891;23;20051;-81
2023/11/12 14:22:59;;;;;;;5.32;3.92;;;4.80;28.50;;;;;;6221781;23;20028;-82
2023/11/12 14:25:48;;;;;;;6.00;4.07;;;4.80;65.50;;;;;;6242970;23;20028;-82
2023/11/12 14:28:41;;;;;;;7.55;3.92;;;4.80;99.90;;;;;;6220302;23;20028;-80
2023/11/12 14:31:28;;;;;;;;;;;4.70;99.40;;;;;;6220832;23;20024;-80
2023/11/12 14:34:15;;;;;;;3.67;3.30;;;4.60;94.80;;;;;;6219629;23;19919;-82
2023/11/12 14:37:05;;;;;;;4.35;3.35;;;4.60;99.90;;;;;;6221681;23;20447;-83
2023/11/12 14:39:53;;;;;;;4.28;3.03;;;4.50;99.90;;;;;;6245011;22;20107;-81
2023/11/12 14:42:43;;;;;;;6.85;4.00;;;4.50;99.90;;;;;;6243862;23;20080;-82
2023/11/12 14:45:33;;;;;;;7.72;4.65;;;4.50;99.90;;;;;;6224805;23;20068;-81
2023/11/12 14:48:24;;;;;;;6.03;3.17;;;4.50;99.90;;;;;;6243486;23;20028;-82
2023/11/12 14:51:11;;;;;;;4.80;2.60;;;4.40;99.90;;;;;;6247467;22;20365;-82
2023/11/12 14:54:04;;;;;;;3.30;2.53;;;4.30;99.90;;;;;;6240033;23;20059;-80